createdAt,value
2023-12-11T00:01:48.056Z,47.67
2023-12-11T00:04:52.745Z,62.33
2023-12-11T00:07:57.981Z,74.03
2023-12-11T00:11:04.060Z,59.97
2023-12-11T00:14:08.605Z,57.55
2023-12-11T00:17:12.342Z,76.47
2023-12-11T00:20:18.302Z,58.33
2023-12-11T00:23:25.638Z,54.63
2023-12-11T00:27:08.661Z,57.80
2023-12-11T00:30:13.469Z,63.13
2023-12-11T00:33:19.354Z,81.28
2023-12-11T00:36:22.771Z,61.45
2023-12-11T00:39:29.206Z,61.55
2023-12-11T00:42:33.027Z,48.47
2023-12-11T00:45:36.106Z,41.50
2023-12-11T00:48:44.821Z,50.20
2023-12-11T00:51:54.645Z,51.40
2023-12-11T00:54:58.365Z,61.45
2023-12-11T00:58:02.343Z,63.85
2023-12-11T01:01:06.407Z,60.28
2023-12-11T01:04:10.119Z,53.22
2023-12-11T01:07:13.539Z,43.13
2023-12-11T01:10:16.679Z,62.05
2023-12-11T01:13:24.107Z,44.00
2023-12-11T01:16:28.655Z,49.83
2023-12-11T01:19:32.827Z,48.03
2023-12-11T01:22:38.808Z,59.80
2023-12-11T01:33:40.564Z,48.03
2023-12-11T01:36:44.947Z,52.30
2023-12-11T01:39:48.329Z,53.67
2023-12-11T01:43:04.272Z,80.63
2023-12-11T01:46:19.719Z,74.28
2023-12-11T01:49:28.605Z,38.35
2023-12-11T01:53:04.675Z,52.78
2023-12-11T01:56:09.875Z,39.50
2023-12-11T01:59:15.022Z,36.97
2023-12-11T02:02:21.527Z,32.95
2023-12-11T02:05:25.570Z,38.08
2023-12-11T02:08:32.975Z,39.30
2023-12-11T02:11:36.754Z,43.55
2023-12-11T02:14:40.615Z,30.92
2023-12-11T02:17:44.485Z,49.03
2023-12-11T02:20:52.184Z,36.58
2023-12-11T02:24:03.334Z,33.28
2023-12-11T02:27:10.979Z,47.47
2023-12-11T02:30:15.090Z,41.95
2023-12-11T02:33:20.176Z,54.78
2023-12-11T02:36:24.853Z,34.05
2023-12-11T02:39:28.046Z,30.88
2023-12-11T02:42:34.669Z,31.40
2023-12-11T02:45:40.640Z,27.35
2023-12-11T02:48:43.955Z,28.12
2023-12-11T02:51:47.048Z,23.73
2023-12-11T02:54:57.918Z,31.58
2023-12-11T02:58:04.358Z,29.63
2023-12-11T03:01:08.060Z,28.70
2023-12-11T03:04:12.960Z,24.42
2023-12-11T03:07:21.695Z,30.95
2023-12-11T03:10:25.008Z,24.95
2023-12-11T03:13:29.070Z,30.05
2023-12-11T03:16:32.479Z,30.27
2023-12-11T03:19:36.181Z,23.83
2023-12-11T03:22:41.567Z,30.80
2023-12-11T03:25:45.100Z,25.00
2023-12-11T03:28:48.598Z,24.05
2023-12-11T03:31:53.907Z,29.42
2023-12-11T03:34:56.914Z,26.52
2023-12-11T03:38:03.643Z,29.50
2023-12-11T03:41:10.948Z,27.95
2023-12-11T03:44:15.275Z,27.27
2023-12-11T03:47:25.757Z,25.48
2023-12-11T03:50:33.014Z,23.90
2023-12-11T03:53:37.311Z,25.65
2023-12-11T03:57:15.986Z,28.85
2023-12-11T04:00:39.635Z,25.90
2023-12-11T04:03:50.258Z,24.30
2023-12-11T04:06:53.783Z,25.98
2023-12-11T04:09:57.875Z,23.02
2023-12-11T04:13:02.805Z,29.42
2023-12-11T04:16:12.193Z,27.70
2023-12-11T04:19:15.698Z,22.00
2023-12-11T04:22:22.291Z,27.08
2023-12-11T04:25:25.127Z,29.02
2023-12-11T04:28:29.455Z,29.98
2023-12-11T04:31:35.201Z,32.42
2023-12-11T04:34:39.350Z,27.23
2023-12-11T04:37:42.518Z,29.77
2023-12-11T04:40:53.500Z,27.25
2023-12-11T04:44:00.918Z,23.92
2023-12-11T04:47:07.164Z,26.98
2023-12-11T04:50:14.376Z,24.58
2023-12-11T04:53:22.080Z,29.98
2023-12-11T04:56:25.614Z,28.30
2023-12-11T04:59:29.387Z,29.60
2023-12-11T05:02:34.934Z,26.15
2023-12-11T05:05:42.654Z,21.83
2023-12-11T05:08:47.369Z,31.05
2023-12-11T05:11:53.036Z,25.23
2023-12-11T05:14:56.756Z,25.52
2023-12-11T05:18:00.962Z,28.27
2023-12-11T05:21:10.415Z,27.13
2023-12-11T05:24:19.958Z,27.10
2023-12-11T05:27:25.950Z,28.87
2023-12-11T05:30:30.341Z,31.73
2023-12-11T05:33:33.963Z,26.75
2023-12-11T05:36:37.831Z,28.45
2023-12-11T05:39:47.349Z,24.10
2023-12-11T05:43:02.068Z,24.25
2023-12-11T05:46:10.234Z,26.50
2023-12-11T05:52:16.317Z,26.17
2023-12-11T05:55:20.999Z,27.50
2023-12-11T05:58:24.691Z,25.45
2023-12-11T06:01:28.657Z,26.98
2023-12-11T06:04:38.211Z,24.63
2023-12-11T06:07:43.170Z,29.83
2023-12-11T06:10:46.866Z,25.27
2023-12-11T06:13:51.888Z,26.52
2023-12-11T06:16:59.876Z,26.07
2023-12-11T06:20:22.837Z,26.75
2023-12-11T06:23:29.543Z,23.58
2023-12-11T06:26:35.453Z,22.50
2023-12-11T06:29:40.255Z,24.70
2023-12-11T06:32:47.255Z,22.15
2023-12-11T06:35:50.932Z,25.00
2023-12-11T06:38:57.099Z,23.05
2023-12-11T06:42:22.463Z,22.83
2023-12-11T06:45:25.322Z,28.35
2023-12-11T06:48:32.894Z,25.45
2023-12-11T06:51:40.068Z,22.95
2023-12-11T06:55:15.625Z,21.48
2023-12-11T06:58:22.265Z,24.63
2023-12-11T07:01:32.254Z,25.35
2023-12-11T07:04:36.733Z,19.62
2023-12-11T07:07:41.357Z,21.48
2023-12-11T07:10:47.561Z,22.37
2023-12-11T07:14:24.974Z,20.73
2023-12-11T07:17:34.379Z,20.12
2023-12-11T07:20:43.618Z,21.65
2023-12-11T07:23:49.899Z,25.45
2023-12-11T07:27:25.640Z,23.12
2023-12-11T07:30:30.957Z,20.73
2023-12-11T07:33:34.905Z,22.37
2023-12-11T07:36:39.898Z,26.05
2023-12-11T07:40:04.156Z,26.35
2023-12-11T07:43:09.478Z,27.20
2023-12-11T07:46:23.233Z,24.67
2023-12-11T07:49:27.796Z,29.33
2023-12-11T07:52:32.083Z,23.52
2023-12-11T07:55:37.230Z,26.98
2023-12-11T07:58:44.017Z,24.90
2023-12-11T08:02:16.748Z,23.42
2023-12-11T08:05:46.332Z,24.77
2023-12-11T08:09:29.401Z,25.58
2023-12-11T08:13:04.755Z,25.30
2023-12-11T08:16:41.013Z,25.45
2023-12-11T08:20:13.255Z,22.52
2023-12-11T08:23:45.490Z,25.17
2023-12-11T08:27:20.501Z,21.12
2023-12-11T08:30:57.817Z,23.95
2023-12-11T08:34:38.800Z,22.73
2023-12-11T08:38:18.444Z,25.70
2023-12-11T08:41:52.491Z,22.87
2023-12-11T08:45:27.753Z,25.90
2023-12-11T08:48:57.056Z,24.45
2023-12-11T08:52:13.819Z,25.15
2023-12-11T08:55:34.176Z,23.10
2023-12-11T08:59:13.006Z,22.25
2023-12-11T09:02:55.462Z,26.70
2023-12-11T09:06:25.749Z,28.25
2023-12-11T09:09:59.160Z,23.35
2023-12-11T09:13:29.638Z,25.77
2023-12-11T09:16:57.407Z,24.73
2023-12-11T09:20:31.118Z,30.27
2023-12-11T09:23:47.394Z,26.48
2023-12-11T09:27:37.204Z,27.33
2023-12-11T09:31:00.859Z,28.30
2023-12-11T09:34:40.205Z,26.37
2023-12-11T09:37:47.885Z,26.15
2023-12-11T09:41:15.601Z,25.20
2023-12-11T09:44:49.154Z,21.65
2023-12-11T09:48:15.298Z,22.13
2023-12-11T09:51:47.108Z,23.70
2023-12-11T09:55:07.967Z,23.12
2023-12-11T09:58:50.906Z,22.83
2023-12-11T10:02:19.836Z,25.05
2023-12-11T10:06:18.122Z,23.50
2023-12-11T10:09:50.297Z,21.05
2023-12-11T10:12:56.330Z,25.40
2023-12-11T10:16:37.182Z,21.87
2023-12-11T10:20:20.177Z,25.58
2023-12-11T10:23:48.542Z,21.55
2023-12-11T10:27:47.081Z,23.23
2023-12-11T10:30:57.948Z,21.00
2023-12-11T10:34:06.912Z,22.52
2023-12-11T10:37:15.580Z,21.98
2023-12-11T10:40:22.115Z,21.67
2023-12-11T10:43:55.358Z,22.05
2023-12-11T10:47:04.429Z,21.37
2023-12-11T10:50:11.295Z,25.37
2023-12-11T10:53:17.189Z,25.87
2023-12-11T10:56:20.497Z,23.33
2023-12-11T10:59:25.711Z,26.98
2023-12-11T11:02:38.574Z,24.42
2023-12-11T11:05:42.782Z,32.95
2023-12-11T11:08:56.283Z,26.87
2023-12-11T11:12:57.539Z,21.48
2023-12-11T11:16:04.940Z,19.98
2023-12-11T11:22:27.356Z,19.40
2023-12-11T11:25:40.686Z,22.30
2023-12-11T11:28:52.279Z,20.45
2023-12-11T11:32:19.269Z,23.00
2023-12-11T11:35:51.684Z,22.55
2023-12-11T11:38:58.296Z,23.80
2023-12-11T11:42:09.100Z,22.25
2023-12-11T11:45:32.481Z,24.63
2023-12-11T11:48:43.242Z,24.08
2023-12-11T11:51:48.243Z,22.25
2023-12-11T11:54:53.383Z,23.25
2023-12-11T11:58:15.700Z,18.52
2023-12-11T12:01:19.137Z,22.70
2023-12-11T12:04:30.835Z,21.27
2023-12-11T12:07:40.635Z,20.25
2023-12-11T12:10:47.715Z,21.15
2023-12-11T12:13:50.791Z,20.15
2023-12-11T12:16:55.110Z,23.27
2023-12-11T12:20:00.202Z,27.92
2023-12-11T12:23:08.343Z,23.85
2023-12-11T12:26:11.385Z,23.38
2023-12-11T12:29:17.794Z,20.90
2023-12-11T12:32:40.899Z,24.77
2023-12-11T12:35:46.121Z,23.35
2023-12-11T12:38:51.536Z,25.23
2023-12-11T12:41:57.660Z,25.12
2023-12-11T12:45:01.771Z,25.70
2023-12-11T12:48:06.741Z,22.80
2023-12-11T12:51:16.146Z,25.70
2023-12-11T12:54:23.051Z,28.83
2023-12-11T12:57:37.830Z,29.23
2023-12-11T13:00:43.865Z,22.83
2023-12-11T13:03:49.595Z,23.70
2023-12-11T13:06:53.256Z,21.45
2023-12-11T13:10:19.202Z,35.58
2023-12-11T13:13:29.279Z,41.60
2023-12-11T13:16:33.172Z,51.35
2023-12-11T13:19:40.897Z,23.10
2023-12-11T13:22:43.878Z,26.33
2023-12-11T13:25:51.552Z,30.45
2023-12-11T13:28:55.911Z,30.15
2023-12-11T13:31:59.729Z,35.03
2023-12-11T13:35:05.849Z,31.65
2023-12-11T13:38:30.475Z,30.70
2023-12-11T13:41:38.497Z,32.95
2023-12-11T13:44:45.439Z,31.48
2023-12-11T13:48:32.364Z,34.75
2023-12-11T13:51:36.625Z,33.47
2023-12-11T13:55:19.424Z,26.12
2023-12-11T13:58:23.999Z,32.60
2023-12-11T14:01:33.310Z,25.42
2023-12-11T14:04:41.761Z,49.65
2023-12-11T14:08:19.073Z,33.75
2023-12-11T14:11:57.455Z,31.37
2023-12-11T14:15:02.334Z,36.45
2023-12-11T14:18:31.407Z,38.40
2023-12-11T14:21:36.687Z,37.67
2023-12-11T14:24:59.661Z,56.45
2023-12-11T14:28:06.506Z,47.08
2023-12-11T14:31:13.142Z,34.90
2023-12-11T14:34:42.878Z,31.92
2023-12-11T14:38:19.135Z,30.45
2023-12-11T14:41:47.798Z,32.47
2023-12-11T14:44:59.068Z,35.60
2023-12-11T14:48:05.005Z,31.25
2023-12-11T14:51:08.455Z,37.47
2023-12-11T14:54:12.797Z,35.53
2023-12-11T14:57:21.229Z,35.63
2023-12-11T15:00:47.604Z,37.28
2023-12-11T15:03:54.070Z,42.58
2023-12-11T15:07:18.240Z,40.88
2023-12-11T15:10:25.436Z,45.20
2023-12-11T15:13:32.999Z,42.03
2023-12-11T15:16:46.201Z,46.83
2023-12-11T15:20:27.980Z,45.53
2023-12-11T15:23:34.427Z,44.47
2023-12-11T15:27:06.806Z,40.58
2023-12-11T15:30:29.831Z,37.75
2023-12-11T15:33:33.087Z,43.00
2023-12-11T15:36:45.754Z,45.78
2023-12-11T15:39:51.809Z,48.92
2023-12-11T15:43:16.987Z,46.95
2023-12-11T15:46:21.151Z,45.78
2023-12-11T15:49:49.014Z,46.47
2023-12-11T15:52:58.677Z,79.62
2023-12-11T15:56:03.853Z,49.75
2023-12-11T16:00:06.735Z,47.97
2023-12-11T16:03:14.392Z,40.92
2023-12-11T16:10:28.032Z,44.53
2023-12-11T16:13:37.259Z,39.20
2023-12-11T16:16:43.809Z,43.58
2023-12-11T16:19:51.170Z,45.78
2023-12-11T16:22:54.859Z,40.15
2023-12-11T16:26:03.396Z,46.00
2023-12-11T16:29:36.014Z,47.40
2023-12-11T16:32:41.704Z,40.97
2023-12-11T16:35:45.043Z,43.65
2023-12-11T16:38:48.627Z,44.13
2023-12-11T16:41:53.152Z,38.80
2023-12-11T16:45:01.534Z,46.28
2023-12-11T16:48:37.720Z,38.88
2023-12-11T16:51:41.785Z,43.90
2023-12-11T16:54:44.875Z,43.05
2023-12-11T16:57:49.396Z,49.40
2023-12-11T17:00:52.160Z,46.90
2023-12-11T17:03:57.149Z,45.08
2023-12-11T17:07:02.555Z,44.10
2023-12-11T17:10:08.415Z,54.13
2023-12-11T17:13:12.206Z,50.25
2023-12-11T17:16:18.039Z,53.00
2023-12-11T17:19:21.660Z,46.53
2023-12-11T17:22:29.709Z,51.35
2023-12-11T17:25:34.775Z,46.88
2023-12-11T17:28:38.872Z,49.38
2023-12-11T17:31:43.672Z,51.00
2023-12-11T17:34:49.973Z,48.38
2023-12-11T17:37:52.677Z,47.50
2023-12-11T17:40:56.336Z,54.03
2023-12-11T17:44:00.051Z,50.00
2023-12-11T17:47:05.253Z,55.33
2023-12-11T17:50:15.676Z,53.40
2023-12-11T17:53:18.908Z,41.00
2023-12-11T17:56:24.466Z,46.80
2023-12-11T17:59:30.603Z,48.40
2023-12-11T18:02:36.651Z,53.77
2023-12-11T18:05:40.660Z,44.53
2023-12-11T18:08:48.683Z,42.80
2023-12-11T18:11:52.015Z,43.13
2023-12-11T18:14:55.122Z,45.47
2023-12-11T18:17:58.530Z,40.22
2023-12-11T18:21:05.763Z,43.25
2023-12-11T18:24:09.127Z,40.08
2023-12-11T18:27:35.946Z,39.92
2023-12-11T18:30:39.514Z,42.85
2023-12-11T18:33:45.801Z,44.25
2023-12-11T18:36:51.561Z,47.45
2023-12-11T18:39:56.717Z,48.30
2023-12-11T18:43:00.036Z,43.93
2023-12-11T18:46:03.624Z,39.42
2023-12-11T18:49:13.793Z,47.25
2023-12-11T18:52:46.871Z,43.42
2023-12-11T18:56:00.311Z,43.75
2023-12-11T18:59:03.617Z,42.95
2023-12-11T19:02:29.712Z,46.60
2023-12-11T19:05:55.472Z,42.47
2023-12-11T19:09:00.610Z,46.40
2023-12-11T19:12:05.614Z,43.92
2023-12-11T19:15:10.459Z,43.75
2023-12-11T19:18:18.967Z,61.50
2023-12-11T19:21:42.959Z,55.17
2023-12-11T19:24:46.177Z,54.63
2023-12-11T19:27:50.545Z,57.42
2023-12-11T19:30:53.576Z,62.60
2023-12-11T19:34:00.080Z,49.72
2023-12-11T19:37:05.745Z,53.72
2023-12-11T19:40:10.521Z,49.05
2023-12-11T19:43:16.751Z,55.65
2023-12-11T19:46:25.912Z,45.00
2023-12-11T19:49:33.440Z,49.72
2023-12-11T19:52:36.971Z,56.23
2023-12-11T19:55:41.465Z,49.78
2023-12-11T19:59:08.499Z,45.05
2023-12-11T20:02:12.151Z,51.88
2023-12-11T20:05:35.466Z,52.60
2023-12-11T20:08:40.955Z,55.40
2023-12-11T20:11:45.920Z,51.78
2023-12-11T20:15:27.001Z,69.15
2023-12-11T20:18:30.679Z,62.22
2023-12-11T20:21:33.207Z,64.47
2023-12-11T20:24:36.460Z,58.47
2023-12-11T20:27:41.337Z,56.63
2023-12-11T20:30:45.303Z,61.75
2023-12-11T20:36:55.691Z,57.50
2023-12-11T20:39:59.064Z,55.80
2023-12-11T20:43:24.935Z,62.15
2023-12-11T20:46:32.769Z,49.65
2023-12-11T20:49:43.826Z,87.12
2023-12-11T20:53:10.611Z,89.53
2023-12-11T20:56:24.982Z,76.28
2023-12-11T20:59:48.637Z,61.03
2023-12-11T21:02:54.075Z,62.60
2023-12-11T21:06:01.981Z,50.75
2023-12-11T21:09:18.255Z,53.63
2023-12-11T21:12:22.016Z,50.83
2023-12-11T21:15:47.423Z,60.67
2023-12-11T21:19:20.336Z,56.92
2023-12-11T21:22:31.083Z,55.53
2023-12-11T21:25:33.966Z,47.30
2023-12-11T21:28:37.761Z,47.55
2023-12-11T21:31:43.354Z,51.83
2023-12-11T21:34:49.337Z,46.63
2023-12-11T21:37:57.145Z,48.80
2023-12-11T21:41:00.360Z,47.92
2023-12-11T21:44:04.898Z,50.38
2023-12-11T21:47:09.762Z,47.45
2023-12-11T21:50:33.735Z,55.30
2023-12-11T21:53:37.265Z,52.75
2023-12-11T21:56:42.494Z,54.00
2023-12-11T21:59:48.424Z,50.78
2023-12-11T22:03:00.978Z,49.22
2023-12-11T22:06:05.335Z,49.88
2023-12-11T22:09:24.686Z,47.08
2023-12-11T22:12:27.818Z,44.33
2023-12-11T22:15:33.711Z,54.10
2023-12-11T22:18:39.433Z,47.40
2023-12-11T22:21:42.180Z,50.00
2023-12-11T22:24:48.043Z,45.60
2023-12-11T22:27:57.318Z,47.50
2023-12-11T22:31:05.473Z,43.78
2023-12-11T22:34:12.015Z,49.45
2023-12-11T22:37:17.417Z,46.53
2023-12-11T22:40:22.334Z,47.03
2023-12-11T22:43:28.887Z,47.92
2023-12-11T22:46:34.836Z,50.80
2023-12-11T22:49:38.476Z,47.97
2023-12-11T22:52:44.167Z,50.00
2023-12-11T22:55:51.348Z,50.20
2023-12-11T22:58:54.156Z,48.35
2023-12-11T23:02:04.631Z,55.50
2023-12-11T23:05:31.746Z,50.72
2023-12-11T23:08:35.819Z,51.17
2023-12-11T23:11:39.043Z,50.33
2023-12-11T23:14:42.228Z,51.63
2023-12-11T23:17:48.465Z,49.35
2023-12-11T23:20:58.313Z,51.53
2023-12-11T23:24:06.500Z,52.55
2023-12-11T23:27:12.995Z,52.95
2023-12-11T23:30:19.382Z,52.60
2023-12-11T23:33:22.712Z,54.47
2023-12-11T23:36:28.476Z,65.85
2023-12-11T23:40:00.706Z,61.40
2023-12-11T23:43:03.346Z,59.65
2023-12-11T23:46:30.547Z,60.42
2023-12-11T23:49:53.668Z,50.35
2023-12-11T23:52:59.218Z,59.90
2023-12-11T23:56:02.577Z,56.05
2023-12-11T23:59:10.143Z,55.15
